createdAt,value
2018-03-30T00:02:08.399Z,100219.28
2018-03-30T00:04:36.701Z,100218.48
2018-03-30T00:07:06.896Z,100221.09
2018-03-30T00:09:56.791Z,100218.54
2018-03-30T00:12:25.141Z,100216.75
2018-03-30T00:14:53.486Z,100219.29
2018-03-30T00:17:22.596Z,100217.95
2018-03-30T00:19:50.934Z,100216.23
2018-03-30T00:22:19.310Z,100221.09
2018-03-30T00:24:47.662Z,100218.48
2018-03-30T00:27:15.986Z,100215.78
2018-03-30T00:29:45.118Z,100217.06
2018-03-30T00:32:13.462Z,100222.69
2018-03-30T00:34:42.574Z,100230.74
2018-03-30T00:37:10.893Z,100237.67
2018-03-30T00:39:40.051Z,100231.47
2018-03-30T00:42:09.130Z,100233.61
2018-03-30T00:44:38.244Z,100226.25
2018-03-30T00:47:06.570Z,100227.98
2018-03-30T00:49:34.936Z,100235.74
2018-03-30T00:52:03.267Z,100230.94
2018-03-30T00:54:31.610Z,100232.30
2018-03-30T00:56:59.970Z,100231.86
2018-03-30T00:59:28.325Z,100235.27
2018-03-30T01:01:56.650Z,100233.98
2018-03-30T01:04:25.782Z,100236.61
2018-03-30T01:06:54.121Z,100240.45
2018-03-30T01:09:22.486Z,100246.37
2018-03-30T01:11:50.850Z,100254.19
2018-03-30T01:14:19.177Z,100252.91
2018-03-30T01:16:47.538Z,100260.61
2018-03-30T01:19:16.657Z,100257.98
2018-03-30T01:21:45.014Z,100260.09
2018-03-30T01:24:14.133Z,100263.55
2018-03-30T01:26:42.445Z,100255.30
2018-03-30T01:29:11.581Z,100265.27
2018-03-30T01:31:40.849Z,100259.98
2018-03-30T01:34:09.170Z,100258.27
2018-03-30T01:36:38.310Z,100265.23
2018-03-30T01:39:06.625Z,100268.24
2018-03-30T01:41:34.993Z,100276.58
2018-03-30T01:44:03.312Z,100280.50
2018-03-30T01:46:31.661Z,100283.94
2018-03-30T01:48:59.978Z,100278.84
2018-03-30T01:51:28.314Z,100282.70
2018-03-30T01:53:56.676Z,100284.83
2018-03-30T01:56:24.988Z,100277.92
2018-03-30T01:58:53.726Z,100283.01
2018-03-30T02:01:22.062Z,100278.09
2018-03-30T02:03:50.415Z,100274.72
2018-03-30T02:06:19.529Z,100284.18
2018-03-30T02:08:47.852Z,100284.10
2018-03-30T02:11:16.192Z,100287.22
2018-03-30T02:13:44.522Z,100285.80
2018-03-30T02:16:12.889Z,100285.44
2018-03-30T02:18:41.206Z,100285.39
2018-03-30T02:21:09.529Z,100281.59
2018-03-30T02:23:37.894Z,100282.38
2018-03-30T02:26:06.209Z,100281.14
2018-03-30T02:28:34.546Z,100284.63
2018-03-30T02:31:02.894Z,100281.68
2018-03-30T02:33:32.047Z,100272.55
2018-03-30T02:36:00.380Z,100275.13
2018-03-30T02:38:28.705Z,100279.65
2018-03-30T02:40:57.053Z,100274.46
2018-03-30T02:43:26.137Z,100264.47
2018-03-30T02:45:54.481Z,100271.39
2018-03-30T02:48:23.573Z,100267.80
2018-03-30T02:50:51.935Z,100278.20
2018-03-30T02:53:20.257Z,100276.56
2018-03-30T02:55:48.581Z,100285.20
2018-03-30T02:58:16.926Z,100287.30
2018-03-30T03:00:45.251Z,100277.87
2018-03-30T03:03:13.609Z,100277.82
2018-03-30T03:05:41.926Z,100277.25
2018-03-30T03:08:11.079Z,100284.03
2018-03-30T03:10:39.392Z,100278.39
2018-03-30T03:13:07.705Z,100278.81
2018-03-30T03:15:36.077Z,100277.05
2018-03-30T03:18:04.430Z,100279.66
2018-03-30T03:20:33.146Z,100277.39
2018-03-30T03:23:01.512Z,100272.22
2018-03-30T03:25:29.879Z,100275.20
2018-03-30T03:27:58.995Z,100271.23
2018-03-30T03:30:27.398Z,100273.88
2018-03-30T03:32:55.726Z,100276.84
2018-03-30T03:35:24.840Z,100280.25
2018-03-30T03:37:53.159Z,100276.70
2018-03-30T03:40:21.515Z,100278.84
2018-03-30T03:42:49.921Z,100286.08
2018-03-30T03:45:19.008Z,100282.52
2018-03-30T03:47:47.360Z,100280.70
2018-03-30T03:50:15.697Z,100285.84
2018-03-30T03:52:44.828Z,100280.61
2018-03-30T03:55:13.163Z,100282.34
2018-03-30T03:57:41.532Z,100287.15
2018-03-30T04:00:09.856Z,100281.83
2018-03-30T04:02:38.171Z,100277.41
2018-03-30T04:05:06.533Z,100283.98
2018-03-30T04:07:34.877Z,100278.25
2018-03-30T04:10:03.228Z,100280.48
2018-03-30T04:12:31.581Z,100274.01
2018-03-30T04:14:59.901Z,100270.14
2018-03-30T04:17:29.034Z,100273.50
2018-03-30T04:19:57.365Z,100269.57
2018-03-30T04:22:26.460Z,100273.91
2018-03-30T04:24:55.598Z,100283.77
2018-03-30T04:27:32.525Z,100285.83
2018-03-30T04:30:00.849Z,100280.58
2018-03-30T04:32:29.185Z,100279.70
2018-03-30T04:34:58.308Z,100284.90
2018-03-30T04:37:26.636Z,100282.38
2018-03-30T04:39:54.955Z,100285.44
2018-03-30T04:42:24.084Z,100276.35
2018-03-30T04:44:52.448Z,100278.45
2018-03-30T04:47:20.820Z,100284.53
2018-03-30T04:49:49.134Z,100288.04
2018-03-30T04:52:17.472Z,100287.23
2018-03-30T04:54:45.829Z,100289.83
2018-03-30T04:57:14.955Z,100296.05
2018-03-30T04:59:43.278Z,100296.63
2018-03-30T05:02:11.612Z,100298.37
2018-03-30T05:04:39.984Z,100295.41
2018-03-30T05:07:08.318Z,100297.63
2018-03-30T05:09:37.460Z,100298.13
2018-03-30T05:12:05.780Z,100295.55
2018-03-30T05:14:34.155Z,100293.38
2018-03-30T05:17:02.493Z,100298.66
2018-03-30T05:19:31.632Z,100296.09
2018-03-30T05:22:01.118Z,100293.11
2018-03-30T05:24:29.479Z,100293.59
2018-03-30T05:26:57.817Z,100289.81
2018-03-30T05:29:26.908Z,100287.31
2018-03-30T05:31:56.041Z,100285.30
2018-03-30T05:34:24.374Z,100294.95
2018-03-30T05:36:52.795Z,100295.97
2018-03-30T05:39:21.127Z,100295.67
2018-03-30T05:41:50.241Z,100301.09
2018-03-30T05:44:19.357Z,100296.08
2018-03-30T05:46:48.486Z,100297.98
2018-03-30T05:49:16.835Z,100299.47
2018-03-30T05:51:45.178Z,100300.07
2018-03-30T05:54:14.271Z,100307.58
2018-03-30T05:56:43.382Z,100312.97
2018-03-30T05:59:11.700Z,100306.14
2018-03-30T06:01:40.038Z,100309.82
2018-03-30T06:04:08.388Z,100309.53
2018-03-30T06:06:37.487Z,100312.69
2018-03-30T06:09:06.607Z,100305.48
2018-03-30T06:11:34.992Z,100305.66
2018-03-30T06:14:03.305Z,100314.87
2018-03-30T06:16:31.661Z,100320.59
2018-03-30T06:19:00.032Z,100322.37
2018-03-30T06:21:28.341Z,100327.18
2018-03-30T06:23:56.714Z,100324.62
2018-03-30T06:26:25.069Z,100318.15
2018-03-30T06:28:53.675Z,100329.06
2018-03-30T06:31:21.996Z,100319.47
2018-03-30T06:33:51.132Z,100324.23
2018-03-30T06:36:19.449Z,100329.88
2018-03-30T06:38:47.811Z,100332.45
2018-03-30T06:41:16.145Z,100330.73
2018-03-30T06:43:44.470Z,100337.64
2018-03-30T06:46:12.807Z,100331.37
2018-03-30T06:48:41.127Z,100329.45
2018-03-30T06:51:09.459Z,100338.15
2018-03-30T06:53:37.770Z,100347.22
2018-03-30T06:56:06.151Z,100345.91
2018-03-30T06:58:34.479Z,100349.28
2018-03-30T07:01:02.979Z,100351.33
2018-03-30T07:03:31.337Z,100348.24
2018-03-30T07:05:59.701Z,100352.78
2018-03-30T07:08:29.211Z,100356.41
2018-03-30T07:10:59.040Z,100357.66
2018-03-30T07:13:27.386Z,100358.46
2018-03-30T07:15:56.483Z,100359.07
2018-03-30T07:18:26.321Z,100362.75
2018-03-30T07:20:54.684Z,100355.52
2018-03-30T07:23:23.499Z,100361.34
2018-03-30T07:25:52.236Z,100363.95
2018-03-30T07:28:20.568Z,100365.91
2018-03-30T07:30:49.318Z,100372.57
2018-03-30T07:33:18.420Z,100375.28
2018-03-30T07:35:47.544Z,100313.55
2018-03-30T07:38:16.261Z,100379.30
2018-03-30T07:40:44.582Z,100381.11
2018-03-30T07:43:12.917Z,100383.00
2018-03-30T07:45:41.283Z,100373.00
2018-03-30T07:48:09.623Z,100376.41
2018-03-30T07:50:37.989Z,100379.58
2018-03-30T07:53:06.331Z,100385.63
2018-03-30T07:55:34.679Z,100378.05
2018-03-30T07:58:03.038Z,100376.82
2018-03-30T08:00:31.398Z,100379.85
2018-03-30T08:03:01.238Z,100377.70
2018-03-30T08:05:30.395Z,100373.11
2018-03-30T08:07:59.503Z,100376.94
2018-03-30T08:10:28.661Z,100371.27
2018-03-30T08:12:56.986Z,100362.71
2018-03-30T08:15:25.331Z,100362.39
2018-03-30T08:17:53.660Z,100355.37
2018-03-30T08:20:22.025Z,100357.86
2018-03-30T08:22:50.372Z,100347.62
2018-03-30T08:25:18.702Z,100352.62
2018-03-30T08:27:47.071Z,100358.52
2018-03-30T08:30:15.473Z,100365.09
2018-03-30T08:32:43.849Z,100366.08
2018-03-30T08:35:12.175Z,100361.58
2018-03-30T08:37:40.542Z,100354.88
2018-03-30T08:40:09.641Z,100359.34
2018-03-30T08:42:38.770Z,100356.08
2018-03-30T08:45:07.158Z,100356.92
2018-03-30T08:47:35.502Z,100351.57
2018-03-30T08:50:04.141Z,100349.58
2018-03-30T08:52:32.514Z,100353.05
2018-03-30T08:55:00.848Z,100351.77
2018-03-30T08:57:29.262Z,100342.96
2018-03-30T08:59:57.616Z,100345.13
2018-03-30T09:02:25.956Z,100341.81
2018-03-30T09:04:54.311Z,100339.72
2018-03-30T09:07:22.678Z,100342.28
2018-03-30T09:09:51.005Z,100334.75
2018-03-30T09:12:19.380Z,100328.55
2018-03-30T09:14:48.838Z,100325.98
2018-03-30T09:17:17.225Z,100325.06
2018-03-30T09:19:45.568Z,100321.58
2018-03-30T09:22:13.931Z,100312.65
2018-03-30T09:24:42.294Z,100315.66
2018-03-30T09:27:11.470Z,100302.70
2018-03-30T09:29:54.226Z,100299.62
2018-03-30T09:32:22.608Z,100304.09
2018-03-30T09:34:50.965Z,100301.08
2018-03-30T09:37:19.302Z,100301.19
2018-03-30T09:39:47.620Z,100296.09
2018-03-30T09:42:15.997Z,100295.90
2018-03-30T09:44:45.173Z,100285.47
2018-03-30T09:47:13.480Z,100285.74
2018-03-30T09:49:41.853Z,100278.61
2018-03-30T09:52:10.952Z,100281.36
2018-03-30T09:54:39.316Z,100290.53
2018-03-30T09:57:08.795Z,100285.32
2018-03-30T09:59:37.170Z,100274.66
2018-03-30T10:02:05.997Z,100274.82
2018-03-30T10:04:35.707Z,100273.23
2018-03-30T10:07:05.529Z,100267.42
2018-03-30T10:09:33.931Z,100264.45
2018-03-30T10:12:02.294Z,100261.00
2018-03-30T10:14:30.662Z,100259.81
2018-03-30T10:16:59.009Z,100259.22
2018-03-30T10:19:27.367Z,100252.84
2018-03-30T10:21:56.057Z,100251.34
2018-03-30T10:24:24.417Z,100247.08
2018-03-30T10:26:52.764Z,100251.32
2018-03-30T10:29:21.117Z,100242.98
2018-03-30T10:31:50.230Z,100242.23
2018-03-30T10:34:18.587Z,100228.19
2018-03-30T10:36:48.053Z,100229.85
2018-03-30T10:39:16.418Z,100225.58
2018-03-30T10:41:44.783Z,100227.12
2018-03-30T10:44:13.101Z,100220.76
2018-03-30T10:46:41.454Z,100210.49
2018-03-30T10:49:10.026Z,100214.00
2018-03-30T10:51:38.394Z,100206.28
2018-03-30T10:54:06.707Z,100201.18
2018-03-30T10:56:35.025Z,100200.97
2018-03-30T10:59:04.516Z,100207.11
2018-03-30T11:01:32.857Z,100198.05
2018-03-30T11:04:01.204Z,100194.66
2018-03-30T11:06:29.559Z,100190.97
2018-03-30T11:08:57.949Z,100188.12
2018-03-30T11:11:26.295Z,100187.25
2018-03-30T11:13:55.467Z,100182.50
2018-03-30T11:16:23.988Z,100178.77
2018-03-30T11:18:53.132Z,100178.19
2018-03-30T11:21:21.573Z,100171.94
2018-03-30T11:23:50.155Z,100159.72
2018-03-30T11:26:18.561Z,100164.38
2018-03-30T11:28:46.962Z,100156.53
2018-03-30T11:31:15.337Z,100149.50
2018-03-30T11:33:43.691Z,100139.11
2018-03-30T11:36:12.013Z,100139.96
2018-03-30T11:38:40.378Z,100135.42
2018-03-30T11:41:08.745Z,100138.02
2018-03-30T11:43:37.110Z,100129.16
2018-03-30T11:46:05.446Z,100121.83
2018-03-30T11:48:34.592Z,100121.20
2018-03-30T11:51:02.965Z,100116.41
2018-03-30T11:53:31.333Z,100125.08
2018-03-30T11:55:59.755Z,100117.23
2018-03-30T11:58:28.092Z,100113.95
2018-03-30T12:00:56.455Z,100099.25
2018-03-30T12:03:24.783Z,100110.11
2018-03-30T12:05:53.220Z,100102.39
2018-03-30T12:08:21.597Z,100112.27
2018-03-30T12:10:49.936Z,100103.34
2018-03-30T12:13:18.288Z,100097.39
2018-03-30T12:15:46.628Z,100101.90
2018-03-30T12:18:15.065Z,100088.87
2018-03-30T12:20:44.204Z,100091.92
2018-03-30T12:23:12.568Z,100090.91
2018-03-30T12:25:40.904Z,100079.22
2018-03-30T12:28:09.242Z,100080.02
2018-03-30T12:30:37.613Z,100066.27
2018-03-30T12:33:05.930Z,100070.99
2018-03-30T12:35:34.303Z,100063.44
2018-03-30T12:38:02.644Z,100056.45
2018-03-30T12:40:31.024Z,100048.80
2018-03-30T12:42:59.410Z,100058.39
2018-03-30T12:45:27.793Z,100046.77
2018-03-30T12:47:56.157Z,100041.41
2018-03-30T12:50:24.504Z,100037.59
2018-03-30T12:52:53.628Z,100034.05
2018-03-30T12:55:21.942Z,100035.70
2018-03-30T12:57:50.325Z,100028.47
2018-03-30T13:00:19.538Z,100021.56
2018-03-30T13:02:47.891Z,100017.05
2018-03-30T13:05:16.222Z,100014.47
2018-03-30T13:07:45.368Z,100011.17
2018-03-30T13:10:13.687Z,100009.81
2018-03-30T13:12:42.780Z,99998.03
2018-03-30T13:15:11.139Z,100000.81
2018-03-30T13:17:39.510Z,99998.73
2018-03-30T13:20:07.896Z,99995.95
2018-03-30T13:22:36.250Z,99986.77
2018-03-30T13:25:04.611Z,99983.15
2018-03-30T13:27:32.952Z,99976.84
2018-03-30T13:30:02.182Z,99974.72
2018-03-30T13:32:30.682Z,99975.74
2018-03-30T13:34:59.828Z,99959.69
2018-03-30T13:37:28.914Z,99956.27
2018-03-30T13:39:57.254Z,99960.45
2018-03-30T13:42:25.625Z,99953.16
2018-03-30T13:44:53.976Z,99949.69
2018-03-30T13:47:22.292Z,99954.30
2018-03-30T13:49:50.657Z,99941.77
2018-03-30T13:52:26.559Z,99937.69
2018-03-30T13:54:55.660Z,99934.69
2018-03-30T13:57:40.300Z,99930.85
2018-03-30T14:00:16.828Z,99933.05
2018-03-30T14:02:52.414Z,99929.69
2018-03-30T14:05:24.399Z,99915.80
2018-03-30T14:11:11.015Z,99902.42
2018-03-30T14:13:40.140Z,99900.99
2018-03-30T14:19:36.318Z,99900.23
2018-03-30T14:22:12.628Z,99889.97
2018-03-30T14:24:42.631Z,99892.72
2018-03-30T14:27:28.197Z,99888.22
2018-03-30T14:33:26.092Z,99869.38
2018-03-30T14:36:11.655Z,99870.18
2018-03-30T14:41:42.050Z,99877.08
2018-03-30T14:44:17.731Z,99872.44
2018-03-30T14:46:55.355Z,99867.88
2018-03-30T14:49:26.314Z,99865.22
2018-03-30T14:52:03.029Z,99864.55
2018-03-30T14:54:35.660Z,99854.66
2018-03-30T14:57:21.291Z,99854.08
2018-03-30T14:59:57.014Z,99845.95
2018-03-30T15:02:26.888Z,99841.93
2018-03-30T15:05:01.842Z,99845.05
2018-03-30T15:07:38.689Z,99829.76
2018-03-30T15:10:19.464Z,99823.06
2018-03-30T15:12:59.588Z,99825.09
2018-03-30T15:15:36.289Z,99824.53
2018-03-30T15:18:06.176Z,99826.22
2018-03-30T15:20:37.067Z,99820.06
2018-03-30T15:23:14.067Z,99826.36
2018-03-30T15:25:52.507Z,99822.34
2018-03-30T15:28:26.647Z,99824.59
2018-03-30T15:31:13.489Z,99807.30
2018-03-30T15:34:05.803Z,99818.56
2018-03-30T15:39:40.483Z,99815.38
2018-03-30T15:42:10.215Z,99817.09
2018-03-30T15:44:43.090Z,99819.40
2018-03-30T15:47:11.718Z,99813.39
2018-03-30T15:49:43.259Z,99811.11
2018-03-30T15:52:15.283Z,99806.86
2018-03-30T15:54:43.797Z,99804.03
2018-03-30T16:00:01.098Z,99800.12
2018-03-30T16:05:58.574Z,99798.95
2018-03-30T16:08:30.085Z,99790.11
2018-03-30T16:11:29.128Z,99798.68
2018-03-30T16:14:01.796Z,99804.17
2018-03-30T16:16:34.141Z,99805.31
2018-03-30T16:19:03.695Z,99801.06
2018-03-30T16:21:33.404Z,99801.88
2018-03-30T16:24:01.144Z,99804.50
2018-03-30T16:26:41.887Z,99799.47
2018-03-30T16:29:22.807Z,99799.31
2018-03-30T16:31:50.731Z,99793.55
2018-03-30T16:34:18.262Z,99797.33
2018-03-30T16:36:45.802Z,99798.55
2018-03-30T16:39:14.171Z,99791.86
2018-03-30T16:41:42.482Z,99792.97
2018-03-30T16:44:10.277Z,99792.52
2018-03-30T16:46:37.907Z,99793.06
2018-03-30T16:49:06.231Z,99796.92
2018-03-30T16:51:33.913Z,99803.58
2018-03-30T16:54:01.546Z,99802.20
2018-03-30T16:56:30.426Z,99801.26
2018-03-30T16:58:58.145Z,99806.52
2018-03-30T17:01:26.543Z,99804.13
2018-03-30T17:03:54.201Z,99802.09
2018-03-30T17:06:21.783Z,99797.68
2018-03-30T17:08:49.410Z,99796.89
2018-03-30T17:11:17.218Z,99802.52
2018-03-30T17:13:44.974Z,99795.64
2018-03-30T17:16:13.001Z,99796.05
2018-03-30T17:18:40.687Z,99797.20
2018-03-30T17:21:08.204Z,99796.03
2018-03-30T17:23:35.800Z,99796.52
2018-03-30T17:26:03.358Z,99799.27
2018-03-30T17:28:31.294Z,99790.20
2018-03-30T17:30:58.841Z,99793.26
2018-03-30T17:33:26.413Z,99795.98
2018-03-30T17:35:54.024Z,99784.92
2018-03-30T17:38:22.360Z,99782.83
2018-03-30T17:40:51.373Z,99787.70
2018-03-30T17:43:19.562Z,99787.02
2018-03-30T17:45:47.209Z,99788.37
2018-03-30T17:48:14.815Z,99786.09
2018-03-30T17:50:43.105Z,99784.14
2018-03-30T17:53:10.654Z,99787.90
2018-03-30T17:55:38.629Z,99786.84
2018-03-30T17:58:08.919Z,99793.51
2018-03-30T18:00:36.665Z,99797.78
2018-03-30T18:03:04.597Z,99802.42
2018-03-30T18:05:32.942Z,99797.80
2018-03-30T18:08:00.497Z,99804.37
2018-03-30T18:10:29.670Z,99807.48
2018-03-30T18:12:57.216Z,99806.98
2018-03-30T18:15:24.742Z,99814.27
2018-03-30T18:17:52.318Z,99820.30
2018-03-30T18:20:19.860Z,99827.11
2018-03-30T18:22:49.170Z,99819.98
2018-03-30T18:25:18.317Z,99810.80
2018-03-30T18:27:45.910Z,99814.97
2018-03-30T18:30:13.578Z,99817.70
2018-03-30T18:32:42.792Z,99818.56
2018-03-30T18:35:10.340Z,99810.70
2018-03-30T18:37:38.959Z,99801.98
2018-03-30T18:40:07.193Z,99811.44
2018-03-30T18:42:35.065Z,99811.88
2018-03-30T18:45:02.949Z,99805.48
2018-03-30T18:47:32.097Z,99805.13
2018-03-30T18:50:00.456Z,99802.09
2018-03-30T18:52:28.804Z,99808.06
2018-03-30T18:54:56.421Z,99796.45
2018-03-30T18:57:24.771Z,99800.00
2018-03-30T18:59:52.325Z,99801.77
2018-03-30T19:02:20.643Z,99801.24
2018-03-30T19:04:48.204Z,99796.20
2018-03-30T19:07:16.541Z,99795.61
2018-03-30T19:09:44.075Z,99791.63
2018-03-30T19:12:11.662Z,99788.23
2018-03-30T19:14:39.206Z,99790.08
2018-03-30T19:17:08.350Z,99782.31
2018-03-30T19:19:37.794Z,99792.84
2018-03-30T19:22:05.346Z,99786.05
2018-03-30T19:24:32.930Z,99788.28
2018-03-30T19:27:00.464Z,99791.56
2018-03-30T19:29:27.994Z,99791.89
2018-03-30T19:31:56.324Z,99796.00
2018-03-30T19:34:24.612Z,99793.92
2018-03-30T19:36:52.212Z,99798.07
2018-03-30T19:39:20.230Z,99799.19
2018-03-30T19:41:48.650Z,99803.26
2018-03-30T19:44:17.803Z,99802.63
2018-03-30T19:46:45.386Z,99803.87
2018-03-30T19:49:12.999Z,99799.47
2018-03-30T19:51:40.542Z,99798.77
2018-03-30T19:54:08.092Z,99795.22
2018-03-30T19:56:35.645Z,99798.59
2018-03-30T19:59:03.946Z,99800.80
2018-03-30T20:01:31.654Z,99802.25
2018-03-30T20:03:59.985Z,99803.91
2018-03-30T20:06:29.232Z,99794.28
2018-03-30T20:08:56.698Z,99789.89
2018-03-30T20:11:24.831Z,99788.31
2018-03-30T20:13:53.190Z,99784.17
2018-03-30T20:16:20.755Z,99780.95
2018-03-30T20:18:48.991Z,99781.55
2018-03-30T20:21:17.293Z,99770.64
2018-03-30T20:23:44.844Z,99776.92
2018-03-30T20:26:12.381Z,99782.30
2018-03-30T20:28:41.121Z,99783.50
2018-03-30T20:31:08.685Z,99777.75
2018-03-30T20:33:37.016Z,99780.59
2018-03-30T20:36:04.583Z,99768.84
2018-03-30T20:38:32.518Z,99759.09
2018-03-30T20:41:00.680Z,99765.92
2018-03-30T20:43:28.195Z,99769.75
2018-03-30T20:45:56.513Z,99767.84
2018-03-30T20:48:24.065Z,99768.06
2018-03-30T20:50:51.592Z,99761.24
2018-03-30T20:53:19.112Z,99756.56
2018-03-30T20:55:47.453Z,99750.39
2018-03-30T20:58:14.974Z,99752.58
2018-03-30T21:00:42.535Z,99749.64
2018-03-30T21:03:10.102Z,99741.96
2018-03-30T21:05:37.631Z,99748.78
2018-03-30T21:08:05.947Z,99751.88
2018-03-30T21:10:33.473Z,99739.70
2018-03-30T21:13:01.802Z,99747.70
2018-03-30T21:15:29.332Z,99738.90
2018-03-30T21:17:56.907Z,99742.11
2018-03-30T21:20:25.563Z,99739.31
2018-03-30T21:22:53.082Z,99748.00
2018-03-30T21:25:20.644Z,99745.17
2018-03-30T21:27:48.778Z,99743.34
2018-03-30T21:30:16.320Z,99734.20
2018-03-30T21:32:45.412Z,99744.84
2018-03-30T21:35:13.002Z,99746.92
2018-03-30T21:37:40.546Z,99750.44
2018-03-30T21:40:08.111Z,99748.75
2018-03-30T21:42:35.680Z,99742.52
2018-03-30T21:45:03.242Z,99738.80
2018-03-30T21:47:30.791Z,99738.60
2018-03-30T21:49:58.360Z,99737.20
2018-03-30T21:52:25.928Z,99736.49
2018-03-30T21:54:53.491Z,99731.44
2018-03-30T21:57:21.006Z,99722.58
2018-03-30T21:59:48.600Z,99725.20
2018-03-30T22:02:16.156Z,99730.20
2018-03-30T22:04:43.695Z,99732.28
2018-03-30T22:07:11.248Z,99724.27
2018-03-30T22:09:38.785Z,99728.56
2018-03-30T22:12:07.128Z,99735.44
2018-03-30T22:14:34.975Z,99727.06
2018-03-30T22:17:02.530Z,99725.88
2018-03-30T22:19:30.068Z,99724.44
2018-03-30T22:21:59.255Z,99730.85
2018-03-30T22:24:27.923Z,99731.01
2018-03-30T22:26:56.304Z,99726.23
2018-03-30T22:29:24.613Z,99728.41
2018-03-30T22:31:52.901Z,99722.77
2018-03-30T22:34:20.463Z,99723.64
2018-03-30T22:36:48.023Z,99723.69
2018-03-30T22:39:15.603Z,99720.72
2018-03-30T22:41:43.139Z,99725.11
2018-03-30T22:44:10.667Z,99724.64
2018-03-30T22:46:38.207Z,99722.91
2018-03-30T22:49:05.759Z,99726.06
2018-03-30T22:51:34.045Z,99717.33
2018-03-30T22:54:01.582Z,99722.14
2018-03-30T22:56:29.131Z,99703.69
2018-03-30T22:58:56.686Z,99696.26
2018-03-30T23:01:24.259Z,99691.09
2018-03-30T23:03:52.233Z,99693.31
2018-03-30T23:06:21.267Z,99689.40
2018-03-30T23:08:49.613Z,99685.91
2018-03-30T23:11:17.898Z,99682.05
2018-03-30T23:13:45.471Z,99679.34
2018-03-30T23:16:12.979Z,99674.28
2018-03-30T23:18:40.543Z,99675.14
2018-03-30T23:21:08.051Z,99669.40
2018-03-30T23:23:35.597Z,99657.63
2018-03-30T23:26:03.141Z,99655.48
2018-03-30T23:28:30.690Z,99652.11
2018-03-30T23:30:59.016Z,99657.63
2018-03-30T23:33:26.528Z,99656.73
2018-03-30T23:35:54.057Z,99661.27
2018-03-30T23:38:21.607Z,99665.97
2018-03-30T23:40:49.121Z,99668.09
2018-03-30T23:43:16.656Z,99655.86
2018-03-30T23:45:44.995Z,99648.95
2018-03-30T23:48:12.542Z,99647.69
2018-03-30T23:50:40.069Z,99642.00
2018-03-30T23:53:07.640Z,99628.08
2018-03-30T23:55:35.196Z,99620.35
2018-03-30T23:58:02.728Z,99612.47
